Startpagina
METAR-TAF:

METAR-TAF

Vliegvelden :

Gran Canaria, Spanje

Aeropuerto de Gran Canaria

breedte: 27-56N, lengte: 015-23W, hoogte: 23 m

Actueel weer

Dit bericht is 30 minuten geleden gemaakt, om 04:00 UTC
Wind 15 kt uit het noorden
Temperatuur 17°C
Vochtigheid 72%
Druk 1024 hPa
Zicht 10 km of meer
Weinig wolken op 2500 ft

METAR: GCLP 140400Z 35015KT 9999 FEW025 17/12 Q1024 NOSIG

Tijdstip: 04:30 (04:30 UTC)

Verwachting

Dit bericht is 2 uur en het 30 minuten geleden gemaakt, om 02:00 UTC
Verwachting geldig van 14 om 03 UTC tot 15 om 03 UTC
Wind 15 kt uit het noordnoordoosten
Zicht 10 km of meer
Verspreide wolken op 3000 ft

TAF: GCLP 140200Z 1403/1503 03015KT 9999 SCT030 TX22/1414Z TN16/1406Z

Waarnemingen en weersverwachtingen van meer dan 4000 vliegvelden (METAR en TAF).

De beschikbare stations zijn de gele en rode punten op de kaart.

Ga met uw muis naar het station om de naam te zien.

Klik dan om waarnemingen en weersverwachtingen te zien.

kaart wijzigen: klik op de groene knoppen met een zwart kruis om in te zoomen, op de groene knop met een streepje om uit te zoomen of op de groene pijlen voor aangrenzende kaarten.


METAR-TAF: